createdAt,value
2018-08-09T00:01:29.524Z,2.72
2018-08-09T00:03:59.103Z,2.52
2018-08-09T00:06:28.362Z,2.20
2018-08-09T00:08:57.760Z,2.60
2018-08-09T00:11:27.323Z,2.37
2018-08-09T00:13:57.197Z,3.00
2018-08-09T00:16:26.797Z,2.25
2018-08-09T00:18:55.999Z,2.62
2018-08-09T00:21:25.270Z,2.05
2018-08-09T00:23:54.712Z,2.22
2018-08-09T00:26:24.002Z,1.95
2018-08-09T00:28:53.305Z,2.20
2018-08-09T00:31:22.547Z,1.87
2018-08-09T00:33:51.850Z,2.20
2018-08-09T00:36:21.149Z,2.10
2018-08-09T00:38:50.271Z,2.58
2018-08-09T00:41:19.720Z,2.30
2018-08-09T00:43:48.999Z,2.42
2018-08-09T00:46:18.389Z,2.17
2018-08-09T00:48:47.816Z,2.20
2018-08-09T00:51:17.087Z,2.25
2018-08-09T00:53:46.210Z,2.33
2018-08-09T00:56:15.540Z,2.35
2018-08-09T00:58:45.044Z,2.37
2018-08-09T01:01:14.344Z,2.15
2018-08-09T01:03:43.792Z,2.58
2018-08-09T01:06:13.035Z,2.65
2018-08-09T01:08:46.239Z,2.50
2018-08-09T01:11:15.432Z,2.47
2018-08-09T01:13:44.824Z,2.75
2018-08-09T01:16:14.026Z,3.02
2018-08-09T01:18:43.284Z,3.25
2018-08-09T01:21:12.750Z,2.70
2018-08-09T01:23:42.010Z,3.05
2018-08-09T01:26:11.338Z,2.90
2018-08-09T01:28:40.408Z,3.37
2018-08-09T01:31:09.671Z,4.05
2018-08-09T01:33:39.728Z,4.87
2018-08-09T01:36:08.916Z,5.03
2018-08-09T01:38:38.194Z,5.85
2018-08-09T01:41:07.408Z,5.90
2018-08-09T01:43:47.113Z,5.83
2018-08-09T01:46:17.208Z,6.15
2018-08-09T01:48:46.709Z,6.17
2018-08-09T01:51:16.149Z,6.30
2018-08-09T01:53:45.415Z,5.95
2018-08-09T01:56:15.314Z,6.65
2018-08-09T01:58:44.723Z,6.28
2018-08-09T02:01:14.104Z,6.08
2018-08-09T02:03:44.421Z,6.72
2018-08-09T02:06:14.267Z,7.20
2018-08-09T02:08:43.434Z,7.87
2018-08-09T02:11:13.119Z,7.72
2018-08-09T02:13:42.968Z,7.70
2018-08-09T02:16:12.296Z,8.58
2018-08-09T02:18:41.537Z,8.53
2018-08-09T02:21:11.338Z,8.23
2018-08-09T02:23:41.182Z,8.15
2018-08-09T02:26:10.316Z,8.58
2018-08-09T02:28:39.401Z,8.05
2018-08-09T02:31:08.897Z,7.58
2018-08-09T02:33:38.428Z,6.97
2018-08-09T02:36:07.327Z,6.97
2018-08-09T02:38:36.782Z,6.95
2018-08-09T02:41:06.193Z,6.72
2018-08-09T02:43:35.470Z,6.55
2018-08-09T02:46:04.738Z,6.83
2018-08-09T02:48:34.149Z,6.62
2018-08-09T02:51:03.292Z,6.72
2018-08-09T02:53:33.121Z,5.95
2018-08-09T02:56:02.601Z,5.85
2018-08-09T02:58:31.720Z,5.15
2018-08-09T03:01:01.091Z,4.97
2018-08-09T03:03:30.340Z,4.40
2018-08-09T03:05:59.610Z,4.00
2018-08-09T03:08:29.474Z,4.47
2018-08-09T03:10:58.860Z,3.77
2018-08-09T03:13:28.340Z,4.00
2018-08-09T03:15:57.695Z,4.45
2018-08-09T03:18:26.798Z,4.45
2018-08-09T03:20:56.057Z,4.10
2018-08-09T03:23:25.334Z,5.10
2018-08-09T03:25:54.489Z,5.15
2018-08-09T03:28:23.769Z,4.90
2018-08-09T03:30:53.050Z,4.58
2018-08-09T03:33:22.301Z,4.83
2018-08-09T03:35:51.488Z,5.60
2018-08-09T03:38:20.801Z,5.03
2018-08-09T03:40:50.013Z,4.95
2018-08-09T03:43:19.156Z,4.60
2018-08-09T03:45:48.349Z,4.85
2018-08-09T03:48:18.239Z,4.72
2018-08-09T03:50:47.537Z,4.78
2018-08-09T03:53:16.802Z,4.72
2018-08-09T03:55:46.618Z,4.80
2018-08-09T03:58:16.123Z,4.10
2018-08-09T04:00:45.902Z,4.97
2018-08-09T04:03:15.489Z,3.85
2018-08-09T04:05:45.112Z,3.87
2018-08-09T04:08:14.270Z,3.55
2018-08-09T04:10:43.952Z,4.03
2018-08-09T04:13:18.421Z,3.75
2018-08-09T04:15:48.575Z,4.00
2018-08-09T04:18:17.719Z,3.52
2018-08-09T04:20:47.257Z,3.83
2018-08-09T04:23:16.887Z,4.20
2018-08-09T04:25:46.406Z,3.67
2018-08-09T04:28:15.934Z,3.37
2018-08-09T04:30:45.406Z,3.55
2018-08-09T04:33:15.065Z,3.40
2018-08-09T04:35:44.546Z,3.10
2018-08-09T04:38:14.269Z,3.52
2018-08-09T04:40:43.526Z,3.73
2018-08-09T04:43:13.323Z,3.25
2018-08-09T04:45:42.632Z,2.90
2018-08-09T04:48:12.190Z,2.85
2018-08-09T04:50:41.544Z,3.67
2018-08-09T04:53:11.292Z,6.20
2018-08-09T04:55:40.666Z,4.97
2018-08-09T04:58:11.728Z,5.80
2018-08-09T05:00:41.035Z,6.05
2018-08-09T05:03:10.229Z,5.60
2018-08-09T05:05:39.723Z,6.25
2018-08-09T05:08:09.150Z,6.85
2018-08-09T05:10:38.581Z,7.72
2018-08-09T05:13:08.136Z,9.13
2018-08-09T05:15:37.377Z,9.15
2018-08-09T05:18:06.941Z,8.35
2018-08-09T05:20:37.826Z,7.30
2018-08-09T05:23:07.480Z,6.35
2018-08-09T05:25:36.825Z,6.97
2018-08-09T05:28:06.384Z,6.92
2018-08-09T05:30:35.895Z,7.28
2018-08-09T05:33:05.451Z,6.95
2018-08-09T05:35:34.714Z,7.15
2018-08-09T05:38:04.305Z,7.40
2018-08-09T05:40:33.729Z,6.95
2018-08-09T05:43:07.461Z,7.37
2018-08-09T05:45:40.610Z,6.75
2018-08-09T05:48:09.925Z,5.67
2018-08-09T05:50:39.435Z,5.65
2018-08-09T05:53:08.965Z,5.55
2018-08-09T05:55:38.616Z,6.08
2018-08-09T05:58:09.077Z,6.47
2018-08-09T06:00:38.734Z,7.30
2018-08-09T06:03:08.619Z,6.72
2018-08-09T06:05:38.192Z,6.50
2018-08-09T06:08:07.973Z,6.25
2018-08-09T06:30:47.327Z,4.78
2018-08-09T06:33:16.776Z,5.42
2018-08-09T06:35:46.782Z,5.17
2018-08-09T06:38:16.628Z,5.65
2018-08-09T06:40:46.191Z,5.65
2018-08-09T06:43:16.259Z,5.30
2018-08-09T06:45:45.501Z,5.92
2018-08-09T06:48:15.860Z,5.72
2018-08-09T06:50:45.319Z,5.28
2018-08-09T06:53:14.740Z,5.70
2018-08-09T06:55:44.041Z,6.12
2018-08-09T06:58:13.598Z,6.65
2018-08-09T07:00:43.128Z,6.40
2018-08-09T07:03:12.613Z,6.53
2018-08-09T07:05:42.033Z,5.97
2018-08-09T07:08:11.839Z,6.10
2018-08-09T07:10:41.468Z,6.87
2018-08-09T07:13:10.906Z,5.75
2018-08-09T07:15:40.677Z,6.33
2018-08-09T07:18:10.032Z,6.05
2018-08-09T07:20:39.665Z,6.47
2018-08-09T07:23:08.993Z,6.40
2018-08-09T07:25:38.649Z,5.87
2018-08-09T07:28:08.781Z,6.22
2018-08-09T07:30:38.020Z,5.95
2018-08-09T07:33:07.384Z,6.50
2018-08-09T07:35:37.894Z,5.87
2018-08-09T07:38:07.610Z,5.37
2018-08-09T07:40:37.169Z,5.30
2018-08-09T08:00:23.164Z,5.77
2018-08-09T08:02:52.579Z,5.40
2018-08-09T08:05:22.070Z,5.90
2018-08-09T08:07:51.693Z,5.83
2018-08-09T08:10:21.433Z,4.97
2018-08-09T08:12:51.002Z,4.80
2018-08-09T08:15:21.032Z,4.57
2018-08-09T08:17:50.417Z,4.50
2018-08-09T08:20:20.049Z,5.00
2018-08-09T08:22:50.166Z,4.50
2018-08-09T08:25:20.243Z,5.90
2018-08-09T08:27:49.836Z,5.25
2018-08-09T08:30:20.068Z,5.57
2018-08-09T08:32:49.797Z,4.70
2018-08-09T08:35:19.581Z,5.50
2018-08-09T08:37:48.984Z,5.30
2018-08-09T08:40:18.495Z,4.80
2018-08-09T08:42:47.840Z,4.62
2018-08-09T08:45:17.787Z,5.60
2018-08-09T08:47:47.121Z,6.53
2018-08-09T08:50:16.887Z,5.73
2018-08-09T08:52:46.281Z,6.22
2018-08-09T08:55:15.674Z,6.03
2018-08-09T08:57:45.214Z,5.28
2018-08-09T09:00:14.831Z,6.30
2018-08-09T09:02:44.503Z,6.05
2018-08-09T09:05:14.300Z,6.30
2018-08-09T09:07:43.704Z,5.47
2018-08-09T09:10:14.502Z,5.77
2018-08-09T09:12:44.017Z,5.55
2018-08-09T09:15:14.799Z,6.33
2018-08-09T17:22:51.489Z,5.47
2018-08-09T17:25:21.003Z,2.27
2018-08-09T17:27:50.868Z,2.27
2018-08-09T17:30:21.552Z,2.30
2018-08-09T17:35:21.691Z,3.02
2018-08-09T17:37:51.274Z,2.20
2018-08-09T17:40:24.747Z,2.45
2018-08-09T17:42:55.096Z,2.30
2018-08-09T17:45:27.824Z,2.72
2018-08-09T17:47:57.293Z,2.42
2018-08-09T17:50:26.990Z,2.45
2018-08-09T17:52:57.757Z,4.35
2018-08-09T17:55:27.238Z,3.37
2018-08-09T17:57:56.764Z,3.30
2018-08-09T18:00:29.658Z,3.07
2018-08-09T18:02:59.206Z,4.67
2018-08-09T18:05:28.626Z,3.65
2018-08-09T18:07:58.503Z,3.70
2018-08-09T18:10:30.611Z,4.03
2018-08-09T18:13:00.297Z,3.80
2018-08-09T18:15:30.351Z,4.62
2018-08-09T18:18:00.359Z,5.55
2018-08-09T18:20:31.483Z,5.62
2018-08-09T18:23:01.224Z,4.75
2018-08-09T18:25:30.736Z,5.33
2018-08-09T18:28:00.266Z,5.03
2018-08-09T18:30:29.822Z,5.30
2018-08-09T18:32:59.293Z,4.75
2018-08-09T18:35:28.648Z,4.70
2018-08-09T18:37:58.152Z,5.72
2018-08-09T18:40:28.307Z,4.33
2018-08-09T18:42:57.831Z,3.35
2018-08-09T18:45:27.386Z,3.25
2018-08-09T18:47:57.067Z,14.75
2018-08-09T18:50:27.805Z,15.63
2018-08-09T18:52:57.312Z,2.35
2018-08-09T18:55:26.878Z,3.80
2018-08-09T18:57:56.393Z,2.87
2018-08-09T19:00:28.294Z,2.00
2018-08-09T19:02:57.755Z,2.02
2018-08-09T19:05:27.565Z,3.40
2018-08-09T19:07:57.235Z,2.08
2018-08-09T19:10:28.366Z,1.67
2018-08-09T19:12:57.880Z,2.20
2018-08-09T19:15:27.560Z,2.55
2018-08-09T19:17:57.098Z,3.95
2018-08-09T19:20:28.799Z,4.50
2018-08-09T19:22:58.573Z,3.92
2018-08-09T19:25:28.176Z,4.05
2018-08-09T19:27:57.728Z,2.25
2018-08-09T19:30:28.532Z,2.30
2018-08-09T19:32:57.837Z,2.10
2018-08-09T19:35:27.646Z,2.42
2018-08-09T19:37:57.695Z,2.33
2018-08-09T19:40:29.987Z,2.30
2018-08-09T19:42:59.855Z,2.42
2018-08-09T19:45:29.133Z,2.87
2018-08-09T19:47:58.471Z,2.52
2018-08-09T19:50:27.707Z,2.90
2018-08-09T19:52:57.415Z,2.52
2018-08-09T19:55:27.748Z,25.60
2018-08-09T19:57:57.368Z,23.85
2018-08-09T20:00:30.034Z,2.93
2018-08-09T20:02:59.208Z,2.40
2018-08-09T20:05:28.645Z,2.45
2018-08-09T20:07:58.368Z,2.22
2018-08-09T20:10:27.813Z,2.25
2018-08-09T20:12:57.799Z,2.30
2018-08-09T20:15:27.516Z,2.02
2018-08-09T20:17:57.734Z,1.95
2018-08-09T20:20:28.068Z,1.80
2018-08-09T20:22:58.315Z,2.00
2018-08-09T20:25:27.904Z,2.00
2018-08-09T20:27:57.451Z,2.10
2018-08-09T20:30:27.507Z,1.90
2018-08-09T20:32:59.060Z,1.60
2018-08-09T20:35:28.596Z,1.90
2018-08-09T20:37:58.035Z,2.05
2018-08-09T20:40:27.296Z,1.90
2018-08-09T20:42:56.667Z,1.67
2018-08-09T20:45:26.906Z,1.90
2018-08-09T20:47:56.124Z,1.77
2018-08-09T20:50:27.485Z,2.00
2018-08-09T20:52:57.208Z,1.67
2018-08-09T20:55:26.493Z,1.77
2018-08-09T20:57:56.658Z,1.40
2018-08-09T21:00:27.549Z,1.57
2018-08-09T21:02:58.348Z,1.10
2018-08-09T21:05:29.008Z,1.00
2018-08-09T21:07:58.733Z,1.05
2018-08-09T21:10:28.326Z,1.02
2018-08-09T21:12:58.092Z,1.15
2018-08-09T21:15:27.424Z,1.07
2018-08-09T21:17:56.546Z,1.25
2018-08-09T21:20:25.807Z,1.10
2018-08-09T21:22:55.190Z,1.17
2018-08-09T21:25:24.569Z,1.07
2018-08-09T21:27:53.815Z,0.93
2018-08-09T21:30:23.860Z,1.10
2018-08-09T21:32:53.515Z,1.10
2018-08-09T21:35:22.873Z,1.00
2018-08-09T21:37:52.137Z,1.00
2018-08-09T21:40:21.645Z,1.20
2018-08-09T21:42:50.891Z,1.05
2018-08-09T21:45:20.921Z,0.90
2018-08-09T21:47:50.143Z,1.17
2018-08-09T21:50:20.726Z,1.10
2018-08-09T21:52:50.189Z,1.50
2018-08-09T21:55:19.370Z,1.00
2018-08-09T21:57:48.958Z,1.20
2018-08-09T22:00:31.252Z,1.30
2018-08-09T22:03:00.998Z,1.27
2018-08-09T22:05:35.250Z,1.40
2018-08-09T22:08:09.586Z,1.42
2018-08-09T22:11:52.513Z,1.60
2018-08-09T22:14:27.842Z,1.67
2018-08-09T22:17:02.093Z,1.70
2018-08-09T22:19:36.547Z,2.02
2018-08-09T22:22:10.701Z,2.62
2018-08-09T22:24:40.533Z,2.35
2018-08-09T22:27:10.561Z,2.30
2018-08-09T22:29:40.075Z,2.15
2018-08-09T22:32:09.796Z,2.92
2018-08-09T22:34:38.919Z,2.45
2018-08-09T22:37:07.982Z,2.10
2018-08-09T22:39:43.898Z,2.30
2018-08-09T22:42:13.524Z,1.50
2018-08-09T22:44:42.823Z,1.82
2018-08-09T22:47:12.117Z,1.80
2018-08-09T22:49:41.378Z,1.98
2018-08-09T22:52:10.524Z,2.08
2018-08-09T22:54:39.631Z,1.77
2018-08-09T22:57:09.004Z,1.80
2018-08-09T22:59:38.325Z,1.55
2018-08-09T23:02:07.511Z,1.92
2018-08-09T23:04:36.782Z,2.12
2018-08-09T23:07:06.359Z,2.80
2018-08-09T23:09:35.591Z,2.02
2018-08-09T23:12:05.504Z,1.67
2018-08-09T23:14:34.801Z,1.75
2018-08-09T23:17:04.511Z,2.27
2018-08-09T23:19:33.830Z,1.80
2018-08-09T23:22:03.424Z,1.60
2018-08-09T23:24:32.813Z,1.50
2018-08-09T23:27:02.587Z,2.30
2018-08-09T23:29:31.972Z,2.10
2018-08-09T23:32:01.414Z,1.60
2018-08-09T23:34:30.845Z,1.40
2018-08-09T23:37:00.946Z,1.70
2018-08-09T23:39:30.188Z,1.67
2018-08-09T23:41:59.365Z,1.35
2018-08-09T23:44:28.672Z,1.00
2018-08-09T23:46:57.943Z,1.22
2018-08-09T23:49:27.210Z,2.00
2018-08-09T23:51:56.388Z,1.60
2018-08-09T23:54:25.739Z,1.80
2018-08-09T23:56:55.112Z,1.55
2018-08-09T23:59:24.365Z,1.47
